createdAt,value
2022-09-28T00:02:41.413Z,16.30
2022-09-28T00:05:44.400Z,16.10
2022-09-28T00:08:49.461Z,14.30
2022-09-28T00:11:57.528Z,15.90
2022-09-28T00:15:00.355Z,16.50
2022-09-28T00:18:03.195Z,17.50
2022-09-28T00:21:14.706Z,13.40
2022-09-28T00:24:20.520Z,14.80
2022-09-28T00:27:24.924Z,16.70
2022-09-28T00:30:27.746Z,18.10
2022-09-28T00:33:30.892Z,16.00
2022-09-28T00:36:34.964Z,12.70
2022-09-28T00:39:43.518Z,12.00
2022-09-28T00:42:47.120Z,14.60
2022-09-28T00:46:02.590Z,13.20
2022-09-28T00:49:11.548Z,14.50
2022-09-28T00:52:31.972Z,12.40
2022-09-28T00:56:09.765Z,11.60
2022-09-28T00:59:14.025Z,15.00
2022-09-28T01:02:18.107Z,9.80
2022-09-28T01:05:25.761Z,9.60
2022-09-28T01:08:31.775Z,12.50
2022-09-28T01:11:37.845Z,9.80
2022-09-28T01:14:41.375Z,8.70
2022-09-28T01:18:09.966Z,9.20
2022-09-28T01:21:20.260Z,10.10
2022-09-28T01:24:30.196Z,9.60
2022-09-28T01:27:50.449Z,11.70
2022-09-28T01:31:13.934Z,13.30
2022-09-28T01:34:41.840Z,10.80
2022-09-28T01:37:56.869Z,9.10
2022-09-28T01:41:00.788Z,11.10
2022-09-28T01:44:08.819Z,12.50
2022-09-28T01:47:15.711Z,11.40
2022-09-28T01:50:23.347Z,11.30
2022-09-28T01:53:35.806Z,12.50
2022-09-28T01:56:46.559Z,10.70
2022-09-28T01:59:58.297Z,12.10
2022-09-28T02:03:33.006Z,9.50
2022-09-28T02:06:40.601Z,9.20
2022-09-28T02:09:49.516Z,8.90
2022-09-28T02:12:59.594Z,6.20
2022-09-28T02:16:10.176Z,8.30
2022-09-28T02:19:16.859Z,6.60
2022-09-28T02:22:33.798Z,7.00
2022-09-28T02:25:36.780Z,6.70
2022-09-28T02:28:39.916Z,6.30
2022-09-28T02:31:43.261Z,4.90
2022-09-28T02:34:46.690Z,7.80
2022-09-28T02:37:50.432Z,5.70
2022-09-28T02:41:12.225Z,7.00
2022-09-28T02:44:33.775Z,7.00
2022-09-28T02:47:55.338Z,7.20
2022-09-28T02:51:26.216Z,7.20
2022-09-28T02:54:47.441Z,6.00
2022-09-28T02:57:53.315Z,6.70
2022-09-28T03:01:25.546Z,4.80
2022-09-28T03:04:33.357Z,6.20
2022-09-28T03:07:41.725Z,5.70
2022-09-28T03:10:58.868Z,4.50
2022-09-28T03:14:03.243Z,5.90
2022-09-28T03:20:17.213Z,6.90
2022-09-28T03:23:24.870Z,7.50
2022-09-28T03:26:28.382Z,7.80
2022-09-28T03:29:33.146Z,10.40
2022-09-28T03:32:39.072Z,9.20
2022-09-28T03:35:42.170Z,10.10
2022-09-28T03:38:45.930Z,15.10
2022-09-28T03:41:48.965Z,11.40
2022-09-28T03:44:52.591Z,10.80
2022-09-28T03:47:55.538Z,11.60
2022-09-28T03:51:01.488Z,7.90
2022-09-28T03:54:04.893Z,8.10
2022-09-28T03:57:07.888Z,11.70
2022-09-28T04:00:11.605Z,8.80
2022-09-28T04:03:17.530Z,9.30
2022-09-28T04:06:20.630Z,9.00
2022-09-28T04:09:23.499Z,11.60
2022-09-28T04:12:26.322Z,11.50
2022-09-28T04:15:29.210Z,10.90
2022-09-28T04:18:33.403Z,8.00
2022-09-28T04:24:58.295Z,9.00
2022-09-28T04:28:19.765Z,8.30
2022-09-28T04:31:24.589Z,8.10
2022-09-28T04:34:31.881Z,7.40
2022-09-28T04:37:37.534Z,9.30
2022-09-28T04:40:40.482Z,9.60
2022-09-28T04:43:46.927Z,7.70
2022-09-28T04:46:51.441Z,10.20
2022-09-28T04:50:07.005Z,7.20
2022-09-28T04:53:12.057Z,11.70
2022-09-28T04:56:17.246Z,8.50
2022-09-28T04:59:20.134Z,11.50
2022-09-28T05:02:23.154Z,8.50
2022-09-28T05:05:45.641Z,7.70
2022-09-28T05:09:08.131Z,13.40
2022-09-28T05:12:11.037Z,8.20
2022-09-28T05:15:14.498Z,8.50
2022-09-28T05:18:17.493Z,8.20
2022-09-28T05:21:36.948Z,8.30
2022-09-28T05:24:39.958Z,10.40
2022-09-28T05:27:42.858Z,6.30
2022-09-28T05:31:05.922Z,6.00
2022-09-28T05:34:27.567Z,6.20
2022-09-28T05:37:31.435Z,8.50
2022-09-28T05:40:34.408Z,8.00
2022-09-28T05:43:38.466Z,9.50
2022-09-28T05:46:41.690Z,12.80
2022-09-28T05:49:46.026Z,9.90
2022-09-28T05:53:01.494Z,10.00
2022-09-28T05:56:04.542Z,8.50
2022-09-28T05:59:09.421Z,12.10
2022-09-28T06:02:12.877Z,8.00
2022-09-28T06:05:15.924Z,13.70
2022-09-28T06:08:19.335Z,9.10
2022-09-28T06:11:28.769Z,6.80
2022-09-28T06:14:33.817Z,6.60
2022-09-28T06:17:36.701Z,7.20
2022-09-28T06:21:11.385Z,6.90
2022-09-28T06:24:18.948Z,11.00
2022-09-28T06:27:22.700Z,4.40
2022-09-28T06:30:27.378Z,6.50
2022-09-28T06:33:30.554Z,7.80
2022-09-28T06:36:33.912Z,10.00
2022-09-28T06:39:36.850Z,8.30
2022-09-28T06:42:40.003Z,9.60
2022-09-28T06:46:01.436Z,6.70
2022-09-28T06:49:23.139Z,8.80
2022-09-28T06:52:53.783Z,9.30
2022-09-28T06:56:15.529Z,7.60
2022-09-28T06:59:18.563Z,8.00
2022-09-28T07:02:23.221Z,9.10
2022-09-28T07:05:54.686Z,7.70
2022-09-28T07:09:31.333Z,6.70
2022-09-28T07:12:58.013Z,6.20
2022-09-28T07:16:10.000Z,5.00
2022-09-28T07:19:16.581Z,5.90
2022-09-28T07:22:29.744Z,4.80
2022-09-28T07:25:38.313Z,4.80
2022-09-28T07:28:46.921Z,4.60
2022-09-28T07:32:22.770Z,21.20
2022-09-28T07:35:54.105Z,7.00
2022-09-28T07:38:59.150Z,5.30
2022-09-28T07:42:03.515Z,4.50
2022-09-28T07:45:07.907Z,6.90
2022-09-28T07:51:26.623Z,4.70
2022-09-28T07:54:52.331Z,7.20
2022-09-28T07:58:13.611Z,4.90
2022-09-28T08:01:26.011Z,5.70
2022-09-28T08:04:31.517Z,4.80
2022-09-28T08:07:34.875Z,5.10
2022-09-28T08:10:47.261Z,2.90
2022-09-28T08:14:25.140Z,3.00
2022-09-28T08:17:36.096Z,2.70
2022-09-28T08:21:01.351Z,5.00
2022-09-28T08:24:04.765Z,3.50
2022-09-28T08:27:07.817Z,3.80
2022-09-28T08:30:11.841Z,4.00
2022-09-28T08:33:23.738Z,4.30
2022-09-28T08:36:45.066Z,8.70
2022-09-28T08:40:13.726Z,4.70
2022-09-28T08:43:51.256Z,5.40
2022-09-28T08:47:49.533Z,4.20
2022-09-28T08:51:20.159Z,5.30
2022-09-28T08:54:46.143Z,6.90
2022-09-28T08:58:17.712Z,8.70
2022-09-28T09:01:23.652Z,5.70
2022-09-28T09:04:27.263Z,4.80
2022-09-28T09:08:02.039Z,3.90
2022-09-28T09:11:07.925Z,3.50
2022-09-28T09:14:50.645Z,4.80
2022-09-28T09:18:29.437Z,3.50
2022-09-28T09:22:01.811Z,6.10
2022-09-28T09:25:14.780Z,3.40
2022-09-28T09:28:27.364Z,2.20
2022-09-28T09:31:59.641Z,3.20
2022-09-28T09:35:30.784Z,2.40
2022-09-28T09:39:21.732Z,2.40
2022-09-28T09:43:04.370Z,3.50
2022-09-28T09:46:39.596Z,3.10
2022-09-28T09:50:06.817Z,4.10
2022-09-28T09:53:27.698Z,2.30
2022-09-28T09:56:45.490Z,4.40
2022-09-28T10:00:17.468Z,4.30
2022-09-28T10:03:34.241Z,4.40
2022-09-28T10:06:49.869Z,3.40
2022-09-28T10:10:01.942Z,2.50
2022-09-28T10:13:13.704Z,1.80
2022-09-28T10:16:21.471Z,2.30
2022-09-28T10:19:34.904Z,2.30
2022-09-28T10:22:58.095Z,2.30
2022-09-28T10:26:12.632Z,1.10
2022-09-28T10:29:25.195Z,1.70
2022-09-28T10:32:39.748Z,2.30
2022-09-28T10:35:43.481Z,1.30
2022-09-28T10:38:48.649Z,8.20
2022-09-28T10:42:07.425Z,4.70
2022-09-28T10:45:21.756Z,6.70
2022-09-28T10:48:24.759Z,4.60
2022-09-28T10:51:46.773Z,6.50
2022-09-28T10:54:53.702Z,2.70
2022-09-28T10:58:00.983Z,1.80
2022-09-28T11:01:17.395Z,3.10
2022-09-28T11:04:27.944Z,4.20
2022-09-28T11:07:45.803Z,3.70
2022-09-28T11:11:03.521Z,1.90
2022-09-28T11:14:29.123Z,3.40
2022-09-28T11:17:41.873Z,5.60
2022-09-28T11:20:46.750Z,4.20
2022-09-28T11:24:09.115Z,2.10
2022-09-28T11:27:35.676Z,9.00
2022-09-28T11:30:49.732Z,2.70
2022-09-28T11:34:58.050Z,2.80
2022-09-28T11:39:01.462Z,5.20
2022-09-28T11:42:35.122Z,3.20
2022-09-28T11:45:41.457Z,1.30
2022-09-28T11:48:51.450Z,2.70
2022-09-28T11:51:59.304Z,3.40
2022-09-28T11:55:19.074Z,5.10
2022-09-28T11:58:35.405Z,3.70
2022-09-28T12:01:58.067Z,1.30
2022-09-28T12:05:31.786Z,3.80
2022-09-28T12:08:44.465Z,2.90
2022-09-28T12:12:34.731Z,2.20
2022-09-28T12:16:38.382Z,5.70
2022-09-28T12:19:38.965Z,3.50
2022-09-28T12:22:54.839Z,5.20
2022-09-28T12:26:00.769Z,3.40
2022-09-28T12:29:11.883Z,2.80
2022-09-28T12:32:23.736Z,2.40
2022-09-28T12:35:44.831Z,1.70
2022-09-28T12:39:18.142Z,2.20
2022-09-28T12:42:58.744Z,2.90
2022-09-28T12:46:30.813Z,5.00
2022-09-28T12:53:55.415Z,4.30
2022-09-28T12:57:02.812Z,9.30
2022-09-28T13:00:13.806Z,5.40
2022-09-28T13:03:59.982Z,2.60
2022-09-28T13:07:34.593Z,3.30
2022-09-28T13:11:16.262Z,2.10
2022-09-28T13:14:50.287Z,7.30
2022-09-28T13:18:22.527Z,10.60
2022-09-28T13:21:35.620Z,12.30
2022-09-28T13:24:44.402Z,7.10
2022-09-28T13:28:07.685Z,2.80
2022-09-28T13:31:18.027Z,3.40
2022-09-28T13:34:37.085Z,3.90
2022-09-28T13:37:41.535Z,4.70
2022-09-28T13:41:06.113Z,3.80
2022-09-28T13:44:12.515Z,5.10
2022-09-28T13:47:42.979Z,3.00
2022-09-28T13:50:54.873Z,3.60
2022-09-28T13:54:26.412Z,8.50
2022-09-28T13:57:51.387Z,2.00
2022-09-28T14:01:05.064Z,4.40
2022-09-28T14:04:14.256Z,3.10
2022-09-28T14:07:25.194Z,2.90
2022-09-28T14:11:25.450Z,3.40
2022-09-28T14:14:44.792Z,8.70
2022-09-28T14:18:20.930Z,5.80
2022-09-28T14:21:48.022Z,5.80
2022-09-28T14:25:04.052Z,10.50
2022-09-28T14:28:28.988Z,7.80
2022-09-28T14:31:43.934Z,6.60
2022-09-28T14:34:57.114Z,10.20
2022-09-28T14:38:43.078Z,8.10
2022-09-28T14:41:46.108Z,6.70
2022-09-28T14:45:06.221Z,6.50
2022-09-28T14:48:19.292Z,6.00
2022-09-28T14:51:26.563Z,8.40
2022-09-28T14:54:51.362Z,7.30
2022-09-28T14:57:59.170Z,8.30
2022-09-28T15:01:07.313Z,6.00
2022-09-28T15:04:12.861Z,9.20
2022-09-28T15:07:24.966Z,8.10
2022-09-28T15:10:34.201Z,11.40
2022-09-28T15:13:38.194Z,13.80
2022-09-28T15:16:41.179Z,12.60
2022-09-28T15:20:07.224Z,11.80
2022-09-28T15:23:36.878Z,13.50
2022-09-28T15:26:39.774Z,9.70
2022-09-28T15:29:57.379Z,10.80
2022-09-28T15:33:22.290Z,10.00
2022-09-28T15:36:38.517Z,9.00
2022-09-28T15:39:41.676Z,11.50
2022-09-28T15:42:47.423Z,10.30
2022-09-28T15:46:06.724Z,10.90
2022-09-28T15:49:38.797Z,9.30
2022-09-28T15:52:54.071Z,16.00
2022-09-28T15:56:02.032Z,13.70
2022-09-28T15:59:13.717Z,13.60
2022-09-28T16:02:22.660Z,18.80
2022-09-28T16:05:36.799Z,16.60
2022-09-28T16:08:42.842Z,17.30
2022-09-28T16:11:50.949Z,18.00
2022-09-28T16:14:56.279Z,13.90
2022-09-28T16:18:03.121Z,12.10
2022-09-28T16:21:27.926Z,16.60
2022-09-28T16:24:34.351Z,13.30
2022-09-28T16:27:42.749Z,12.90
2022-09-28T16:31:01.920Z,10.30
2022-09-28T16:34:17.184Z,14.40
2022-09-28T16:37:31.782Z,8.70
2022-09-28T16:40:39.618Z,10.40
2022-09-28T16:43:42.650Z,14.00
2022-09-28T16:46:46.713Z,11.90
2022-09-28T16:49:50.262Z,20.40
2022-09-28T16:53:31.649Z,16.80
2022-09-28T16:56:36.534Z,9.90
2022-09-28T16:59:39.610Z,7.70
2022-09-28T17:02:46.562Z,8.00
2022-09-28T17:05:51.555Z,5.80
2022-09-28T17:08:58.870Z,11.90
2022-09-28T17:12:02.219Z,6.80
2022-09-28T17:15:05.509Z,6.90
2022-09-28T17:18:13.067Z,6.70
2022-09-28T17:21:19.484Z,6.30
2022-09-28T17:24:22.368Z,4.70
2022-09-28T17:27:25.830Z,6.50
2022-09-28T17:30:30.211Z,6.20
2022-09-28T17:33:33.253Z,8.30
2022-09-28T17:36:37.073Z,11.40
2022-09-28T17:39:40.014Z,6.60
2022-09-28T17:42:43.075Z,5.30
2022-09-28T17:45:47.534Z,6.10
2022-09-28T17:48:51.989Z,6.90
2022-09-28T17:51:55.069Z,7.60
2022-09-28T17:54:58.003Z,9.40
2022-09-28T17:58:03.148Z,11.50
2022-09-28T18:01:06.077Z,11.70
2022-09-28T18:04:23.023Z,10.50
2022-09-28T18:07:35.429Z,8.10
2022-09-28T18:10:38.516Z,11.20
2022-09-28T18:13:42.894Z,8.40
2022-09-28T18:16:46.490Z,6.80
2022-09-28T18:19:49.550Z,10.10
2022-09-28T18:22:52.716Z,8.90
2022-09-28T18:25:56.372Z,7.60
2022-09-28T18:28:59.423Z,8.60
2022-09-28T18:32:03.125Z,10.80
2022-09-28T18:35:08.816Z,7.30
2022-09-28T18:38:11.819Z,7.90
2022-09-28T18:41:16.202Z,10.80
2022-09-28T18:44:20.273Z,9.50
2022-09-28T18:47:24.623Z,15.20
2022-09-28T18:50:27.953Z,18.50
2022-09-28T18:53:34.782Z,20.20
2022-09-28T18:56:38.146Z,21.10
2022-09-28T18:59:41.161Z,23.20
2022-09-28T19:02:44.190Z,21.70
2022-09-28T19:05:48.678Z,19.50
2022-09-28T19:08:53.200Z,15.50
2022-09-28T19:11:56.598Z,17.60
2022-09-28T19:14:59.825Z,16.60
2022-09-28T19:18:04.294Z,18.00
2022-09-28T19:21:09.583Z,18.00
2022-09-28T19:24:17.320Z,17.00
2022-09-28T19:27:20.288Z,22.20
2022-09-28T19:30:23.238Z,17.80
2022-09-28T19:33:26.580Z,22.40
2022-09-28T19:36:31.390Z,22.60
2022-09-28T19:39:35.200Z,21.90
2022-09-28T19:42:39.605Z,23.70
2022-09-28T19:45:46.961Z,33.40
2022-09-28T19:48:50.171Z,29.90
2022-09-28T19:52:14.435Z,30.10
2022-09-28T19:55:21.166Z,34.60
2022-09-28T19:58:28.168Z,33.50
2022-09-28T20:01:32.048Z,25.00
2022-09-28T20:04:35.422Z,26.70
2022-09-28T20:07:39.824Z,26.20
2022-09-28T20:10:54.767Z,32.20
2022-09-28T20:14:02.441Z,32.00
2022-09-28T20:17:05.413Z,32.50
2022-09-28T20:20:08.907Z,31.50
2022-09-28T20:23:12.153Z,33.40
2022-09-28T20:26:20.104Z,33.10
2022-09-28T20:29:24.402Z,33.20
2022-09-28T20:32:35.525Z,33.40
2022-09-28T20:35:41.142Z,31.80
2022-09-28T20:38:47.754Z,32.00
2022-09-28T20:41:50.664Z,30.30
2022-09-28T20:44:53.998Z,27.90
2022-09-28T20:47:57.136Z,25.60
2022-09-28T20:51:10.317Z,23.90
2022-09-28T20:54:13.403Z,23.10
2022-09-28T20:57:19.113Z,23.50
2022-09-28T21:00:23.013Z,20.00
2022-09-28T21:03:25.983Z,19.10
2022-09-28T21:06:31.262Z,23.80
2022-09-28T21:09:34.625Z,30.30
2022-09-28T21:12:38.941Z,34.30
2022-09-28T21:15:42.000Z,31.20
2022-09-28T21:18:45.267Z,33.60
2022-09-28T21:21:48.282Z,32.10
2022-09-28T21:24:51.379Z,33.90
2022-09-28T21:27:54.427Z,20.50
2022-09-28T21:30:58.138Z,15.80
2022-09-28T21:34:01.357Z,15.40
2022-09-28T21:37:04.327Z,12.50
2022-09-28T21:40:09.834Z,14.00
2022-09-28T21:43:13.331Z,11.70
2022-09-28T21:46:17.637Z,14.40
2022-09-28T21:49:20.693Z,12.50
2022-09-28T21:52:23.641Z,13.60
2022-09-28T21:55:26.601Z,11.60
2022-09-28T21:58:33.626Z,9.90
2022-09-28T22:01:36.691Z,8.80
2022-09-28T22:04:39.822Z,8.90
2022-09-28T22:07:43.227Z,9.40
2022-09-28T22:10:46.439Z,8.70
2022-09-28T22:13:55.097Z,10.50
2022-09-28T22:16:58.043Z,10.70
2022-09-28T22:20:01.352Z,9.30
2022-09-28T22:23:04.309Z,8.90
2022-09-28T22:26:08.491Z,10.20
2022-09-28T22:29:11.453Z,11.00
2022-09-28T22:32:14.378Z,11.30
2022-09-28T22:35:17.343Z,10.50
2022-09-28T22:38:22.238Z,14.40
2022-09-28T22:41:25.529Z,13.00
2022-09-28T22:44:28.464Z,11.60
2022-09-28T22:47:31.353Z,12.60
2022-09-28T22:50:34.550Z,10.80
2022-09-28T22:53:38.032Z,11.90
2022-09-28T22:56:41.011Z,10.50
2022-09-28T22:59:43.967Z,11.00
2022-09-28T23:02:47.090Z,11.90
2022-09-28T23:05:54.441Z,11.10
2022-09-28T23:08:57.821Z,10.50
2022-09-28T23:12:00.983Z,7.70
2022-09-28T23:15:04.297Z,8.90
2022-09-28T23:18:08.515Z,8.00
2022-09-28T23:21:15.407Z,9.70
2022-09-28T23:24:18.717Z,10.70
2022-09-28T23:27:21.859Z,10.30
2022-09-28T23:30:24.900Z,10.00
2022-09-28T23:33:27.839Z,9.20
2022-09-28T23:36:31.031Z,9.80
2022-09-28T23:39:33.988Z,9.90
2022-09-28T23:42:37.052Z,8.10
2022-09-28T23:45:42.288Z,8.90
2022-09-28T23:48:45.433Z,10.10
2022-09-28T23:51:48.362Z,9.10
2022-09-28T23:54:51.305Z,10.30
2022-09-28T23:57:55.706Z,10.20
